createdAt,value
2017-07-21T00:00:15.023Z,2.50
2017-07-21T00:02:41.609Z,2.07
2017-07-21T00:05:08.484Z,2.70
2017-07-21T00:07:35.385Z,2.33
2017-07-21T00:10:02.053Z,2.20
2017-07-21T00:12:28.654Z,2.23
2017-07-21T00:14:55.236Z,2.60
2017-07-21T00:17:21.830Z,2.70
2017-07-21T00:19:48.414Z,2.90
2017-07-21T00:22:15.041Z,2.40
2017-07-21T00:24:41.642Z,2.30
2017-07-21T00:27:09.394Z,2.67
2017-07-21T00:29:36.081Z,2.30
2017-07-21T00:32:02.703Z,2.33
2017-07-21T00:34:29.307Z,2.40
2017-07-21T00:36:55.893Z,2.47
2017-07-21T00:39:22.471Z,2.20
2017-07-21T00:41:49.058Z,2.53
2017-07-21T00:44:25.358Z,2.30
2017-07-21T00:46:52.006Z,2.53
2017-07-21T00:49:18.585Z,2.30
2017-07-21T00:51:45.163Z,2.30
2017-07-21T00:54:11.800Z,2.50
2017-07-21T00:56:38.681Z,2.40
2017-07-21T00:59:05.541Z,2.10
2017-07-21T01:01:32.124Z,2.43
2017-07-21T01:03:58.696Z,2.60
2017-07-21T01:06:25.290Z,2.70
2017-07-21T01:08:51.875Z,2.53
2017-07-21T01:11:18.471Z,2.90
2017-07-21T01:13:45.058Z,2.57
2017-07-21T01:16:11.747Z,2.70
2017-07-21T01:18:38.381Z,2.70
2017-07-21T01:21:05.012Z,2.40
2017-07-21T01:23:31.636Z,2.70
2017-07-21T01:25:58.216Z,2.83
2017-07-21T01:28:24.789Z,2.57
2017-07-21T01:30:51.382Z,2.63
2017-07-21T01:33:17.957Z,2.50
2017-07-21T01:35:44.558Z,2.70
2017-07-21T01:38:11.139Z,2.70
2017-07-21T01:40:38.535Z,2.60
2017-07-21T01:43:05.350Z,2.60
2017-07-21T01:45:31.953Z,2.60
2017-07-21T01:47:58.546Z,2.63
2017-07-21T01:50:25.122Z,2.50
2017-07-21T01:52:51.705Z,2.40
2017-07-21T01:55:18.292Z,2.80
2017-07-21T01:57:44.868Z,2.60
2017-07-21T02:00:11.553Z,2.67
2017-07-21T02:02:38.933Z,2.77
2017-07-21T02:05:05.566Z,2.80
2017-07-21T02:07:32.165Z,2.70
2017-07-21T02:09:58.800Z,2.67
2017-07-21T02:12:25.394Z,2.80
2017-07-21T02:14:51.969Z,2.57
2017-07-21T02:17:18.547Z,2.40
2017-07-21T02:19:45.135Z,2.80
2017-07-21T02:22:11.780Z,2.53
2017-07-21T02:24:38.482Z,2.70
2017-07-21T02:27:05.132Z,2.70
2017-07-21T02:29:31.738Z,2.50
2017-07-21T02:31:58.321Z,2.40
2017-07-21T02:34:24.906Z,2.57
2017-07-21T02:36:51.514Z,2.83
2017-07-21T02:39:18.088Z,2.90
2017-07-21T02:41:44.667Z,2.73
2017-07-21T02:44:11.319Z,2.70
2017-07-21T02:46:38.178Z,2.93
2017-07-21T02:49:04.993Z,2.97
2017-07-21T02:51:31.595Z,3.17
2017-07-21T02:53:58.196Z,2.50
2017-07-21T02:56:24.782Z,2.60
2017-07-21T02:58:51.378Z,2.63
2017-07-21T03:01:18.005Z,2.57
2017-07-21T03:03:44.634Z,2.73
2017-07-21T03:06:11.246Z,2.70
2017-07-21T03:08:38.672Z,2.80
2017-07-21T03:11:05.298Z,2.83
2017-07-21T03:13:31.921Z,2.93
2017-07-21T03:15:58.497Z,2.70
2017-07-21T03:18:25.093Z,2.97
2017-07-21T03:20:51.687Z,3.10
2017-07-21T03:23:23.310Z,2.40
2017-07-21T03:25:49.909Z,2.80
2017-07-21T03:28:16.500Z,2.93
2017-07-21T03:30:43.128Z,2.67
2017-07-21T03:33:09.891Z,2.93
2017-07-21T03:35:36.491Z,3.33
2017-07-21T03:38:03.081Z,3.10
2017-07-21T03:40:29.660Z,2.47
2017-07-21T03:42:56.247Z,2.40
2017-07-21T03:45:22.821Z,2.70
2017-07-21T03:47:49.397Z,2.67
2017-07-21T03:50:15.985Z,2.70
2017-07-21T03:52:42.562Z,2.80
2017-07-21T03:55:09.421Z,2.83
2017-07-21T03:57:36.013Z,2.70
2017-07-21T04:00:03.010Z,2.80
2017-07-21T04:02:29.646Z,2.80
2017-07-21T04:04:56.231Z,2.57
2017-07-21T04:07:22.817Z,2.80
2017-07-21T04:09:49.398Z,2.50
2017-07-21T04:12:15.986Z,3.27
2017-07-21T04:14:42.588Z,2.63
2017-07-21T04:17:09.178Z,2.97
2017-07-21T04:19:35.816Z,3.40
2017-07-21T04:22:02.385Z,2.73
2017-07-21T04:24:28.965Z,3.00
2017-07-21T04:26:55.559Z,2.93
2017-07-21T04:29:22.139Z,2.83
2017-07-21T04:31:48.733Z,2.70
2017-07-21T04:34:15.329Z,2.73
2017-07-21T04:36:41.924Z,3.10
2017-07-21T04:39:08.513Z,3.17
2017-07-21T04:41:35.102Z,2.60
2017-07-21T04:44:01.709Z,2.97
2017-07-21T04:46:28.303Z,2.33
2017-07-21T04:48:54.880Z,2.70
2017-07-21T04:51:21.495Z,2.73
2017-07-21T04:53:48.066Z,3.30
2017-07-21T04:56:14.663Z,2.70
2017-07-21T04:58:41.253Z,2.90
2017-07-21T05:01:07.887Z,2.90
2017-07-21T05:03:34.600Z,2.83
2017-07-21T05:06:01.202Z,3.10
2017-07-21T05:08:27.805Z,2.83
2017-07-21T05:10:54.387Z,3.10
2017-07-21T05:13:20.973Z,2.77
2017-07-21T05:15:47.558Z,3.30
2017-07-21T05:18:14.151Z,3.20
2017-07-21T05:20:40.793Z,3.20
2017-07-21T05:23:07.429Z,3.20
2017-07-21T05:25:34.035Z,3.10
2017-07-21T05:28:00.670Z,3.10
2017-07-21T05:30:27.248Z,3.20
2017-07-21T05:32:53.834Z,2.73
2017-07-21T05:35:20.408Z,2.77
2017-07-21T05:37:46.998Z,2.50
2017-07-21T05:40:13.600Z,2.80
2017-07-21T05:42:40.191Z,3.43
2017-07-21T05:45:06.821Z,3.37
2017-07-21T05:47:33.445Z,2.70
2017-07-21T05:50:00.063Z,3.10
2017-07-21T05:52:26.680Z,2.80
2017-07-21T05:54:53.446Z,2.97
2017-07-21T05:57:20.040Z,2.83
2017-07-21T05:59:46.613Z,3.40
2017-07-21T06:02:13.274Z,3.00
2017-07-21T06:04:40.031Z,3.30
2017-07-21T06:07:06.734Z,2.87
2017-07-21T06:09:33.319Z,3.10
2017-07-21T06:11:59.899Z,3.23
2017-07-21T06:14:26.469Z,3.47
2017-07-21T06:16:53.054Z,3.03
2017-07-21T06:19:19.715Z,3.10
2017-07-21T06:21:46.338Z,2.93
2017-07-21T06:24:12.921Z,3.30
2017-07-21T06:26:39.526Z,3.10
2017-07-21T06:29:06.314Z,2.40
2017-07-21T06:31:32.890Z,2.47
2017-07-21T06:33:59.481Z,2.40
2017-07-21T06:36:26.057Z,2.23
2017-07-21T06:39:00.887Z,2.50
2017-07-21T06:41:27.510Z,1.70
2017-07-21T06:43:54.091Z,2.03
2017-07-21T06:46:26.441Z,2.20
2017-07-21T06:48:53.013Z,1.90
2017-07-21T06:51:19.610Z,2.53
2017-07-21T06:53:46.194Z,2.27
2017-07-21T06:56:12.851Z,2.07
2017-07-21T06:58:39.620Z,2.30
2017-07-21T07:01:07.161Z,2.10
2017-07-21T07:03:34.181Z,2.73
2017-07-21T07:06:00.762Z,2.83
2017-07-21T07:08:27.441Z,2.00
2017-07-21T07:10:54.007Z,2.47
2017-07-21T07:13:20.648Z,2.17
2017-07-21T07:15:47.277Z,3.13
2017-07-21T07:18:13.876Z,1.90
2017-07-21T07:20:40.480Z,2.30
2017-07-21T07:23:10.647Z,2.00
2017-07-21T07:25:37.231Z,2.13
2017-07-21T07:28:10.270Z,2.80
2017-07-21T07:30:36.858Z,1.60
2017-07-21T07:33:03.438Z,2.00
2017-07-21T07:35:30.046Z,1.70
2017-07-21T07:37:58.477Z,1.70
2017-07-21T07:40:25.063Z,1.57
2017-07-21T07:42:51.642Z,1.80
2017-07-21T07:45:18.220Z,1.77
2017-07-21T07:47:44.839Z,1.70
2017-07-21T07:50:11.409Z,1.70
2017-07-21T07:52:38.110Z,1.60
2017-07-21T07:55:04.742Z,2.00
2017-07-21T07:57:31.317Z,1.60
2017-07-21T07:59:57.921Z,2.00
2017-07-21T08:02:24.500Z,2.13
2017-07-21T08:04:51.091Z,1.73
2017-07-21T08:07:17.670Z,1.93
2017-07-21T08:09:44.313Z,1.70
2017-07-21T08:12:10.902Z,1.63
2017-07-21T08:14:38.780Z,1.73
2017-07-21T08:17:05.452Z,1.93
2017-07-21T08:19:32.042Z,1.80
2017-07-21T08:21:58.620Z,1.80
2017-07-21T08:24:25.257Z,1.77
2017-07-21T08:26:51.834Z,1.47
2017-07-21T08:29:18.433Z,1.70
2017-07-21T08:31:45.017Z,1.77
2017-07-21T08:34:11.611Z,1.90
2017-07-21T08:36:39.950Z,1.67
2017-07-21T08:39:06.549Z,1.40
2017-07-21T08:41:33.140Z,1.70
2017-07-21T08:43:59.729Z,1.97
2017-07-21T08:46:26.305Z,1.70
2017-07-21T08:48:52.887Z,2.37
2017-07-21T08:51:19.465Z,2.27
2017-07-21T08:53:46.049Z,1.87
2017-07-21T08:56:12.716Z,1.73
2017-07-21T08:58:39.453Z,2.03
2017-07-21T09:01:06.076Z,1.80
2017-07-21T09:03:32.715Z,2.10
2017-07-21T09:05:59.325Z,1.80
2017-07-21T09:08:25.903Z,2.57
2017-07-21T09:10:52.477Z,1.70
2017-07-21T09:13:19.063Z,2.00
2017-07-21T09:15:45.649Z,2.00
2017-07-21T09:18:12.304Z,1.80
2017-07-21T09:20:39.705Z,2.07
2017-07-21T09:23:06.388Z,1.60
2017-07-21T09:25:32.965Z,1.87
2017-07-21T09:27:59.538Z,2.00
2017-07-21T09:30:26.189Z,2.00
2017-07-21T09:32:52.781Z,2.20
2017-07-21T09:35:19.394Z,2.10
2017-07-21T09:37:45.973Z,1.90
2017-07-21T09:40:12.589Z,1.90
2017-07-21T09:42:39.526Z,1.67
2017-07-21T09:45:06.247Z,1.77
2017-07-21T09:47:32.840Z,1.77
2017-07-21T09:49:59.427Z,2.00
2017-07-21T09:52:26.007Z,1.83
2017-07-21T09:54:52.604Z,1.70
2017-07-21T09:57:19.225Z,2.10
2017-07-21T09:59:45.805Z,1.80
2017-07-21T10:02:12.404Z,1.80
2017-07-21T10:04:38.605Z,1.63
2017-07-21T10:07:05.311Z,1.63
2017-07-21T10:09:31.890Z,1.80
2017-07-21T10:11:58.572Z,1.60
2017-07-21T10:14:25.185Z,1.90
2017-07-21T10:16:52.202Z,1.70
2017-07-21T10:19:18.797Z,1.70
2017-07-21T10:21:45.380Z,1.60
2017-07-21T10:24:11.977Z,2.23
2017-07-21T10:26:38.630Z,2.40
2017-07-21T10:29:05.275Z,1.80
2017-07-21T10:31:32.028Z,2.03
2017-07-21T10:33:58.633Z,1.50
2017-07-21T10:36:25.222Z,1.90
2017-07-21T10:38:51.809Z,2.07
2017-07-21T10:41:18.409Z,1.60
2017-07-21T10:43:45.013Z,1.90
2017-07-21T10:46:11.624Z,1.70
2017-07-21T10:48:38.284Z,2.03
2017-07-21T10:51:05.075Z,1.93
2017-07-21T10:53:31.713Z,2.03
2017-07-21T10:55:58.333Z,1.70
2017-07-21T10:58:25.173Z,2.10
2017-07-21T11:00:55.891Z,1.63
2017-07-21T11:03:30.003Z,2.10
2017-07-21T11:05:56.595Z,1.77
2017-07-21T11:08:23.178Z,1.67
2017-07-21T11:10:53.346Z,1.80
2017-07-21T11:13:19.935Z,1.80
2017-07-21T11:15:46.517Z,2.00
2017-07-21T11:18:13.121Z,1.70
2017-07-21T11:20:39.731Z,1.53
2017-07-21T11:23:06.481Z,1.90
2017-07-21T11:25:33.094Z,1.70
2017-07-21T11:27:59.682Z,1.90
2017-07-21T11:30:26.284Z,1.53
2017-07-21T11:32:52.849Z,1.90
2017-07-21T11:35:19.421Z,1.80
2017-07-21T11:37:46.027Z,1.90
2017-07-21T11:40:12.637Z,2.00
2017-07-21T11:42:39.311Z,2.23
2017-07-21T11:45:05.962Z,2.00
2017-07-21T11:47:32.549Z,1.80
2017-07-21T11:49:59.142Z,1.90
2017-07-21T11:52:25.714Z,1.80
2017-07-21T11:54:52.299Z,1.90
2017-07-21T11:57:18.928Z,1.77
2017-07-21T11:59:45.511Z,1.80
2017-07-21T12:02:12.102Z,2.00
2017-07-21T12:04:38.681Z,1.67
2017-07-21T12:07:05.522Z,2.30
2017-07-21T12:09:32.130Z,1.80
2017-07-21T12:11:58.711Z,1.60
2017-07-21T12:14:31.492Z,1.90
2017-07-21T12:16:58.066Z,1.90
2017-07-21T12:19:24.661Z,2.10
2017-07-21T12:21:58.095Z,1.93
2017-07-21T12:24:24.675Z,2.00
2017-07-21T12:26:51.278Z,2.13
2017-07-21T12:29:17.858Z,1.77
2017-07-21T12:31:44.453Z,1.80
2017-07-21T12:34:11.046Z,2.00
2017-07-21T12:36:37.630Z,2.13
2017-07-21T12:39:04.603Z,1.53
2017-07-21T12:41:31.259Z,2.50
2017-07-21T12:43:57.866Z,1.70
2017-07-21T12:46:24.449Z,1.80
2017-07-21T12:48:51.035Z,1.93
2017-07-21T12:51:17.646Z,1.63
2017-07-21T12:53:44.226Z,2.00
2017-07-21T12:56:10.824Z,1.90
2017-07-21T12:58:37.417Z,2.07
2017-07-21T13:01:03.997Z,1.80
2017-07-21T13:03:30.587Z,2.20
2017-07-21T13:05:57.397Z,1.80
2017-07-21T13:08:23.978Z,1.90
2017-07-21T13:10:50.570Z,1.80
2017-07-21T13:13:17.193Z,1.60
2017-07-21T13:15:43.781Z,1.80
2017-07-21T13:18:10.379Z,2.10
2017-07-21T13:23:10.728Z,1.60
2017-07-21T13:25:37.390Z,1.80
2017-07-21T13:28:05.808Z,2.17
2017-07-21T13:30:32.390Z,1.80
2017-07-21T13:32:59.090Z,1.83
2017-07-21T13:35:25.672Z,2.33
2017-07-21T13:37:55.377Z,2.00
2017-07-21T13:40:21.978Z,1.90
2017-07-21T13:42:54.589Z,1.90
2017-07-21T13:45:22.459Z,1.60
2017-07-21T13:47:55.287Z,1.80
2017-07-21T13:50:21.875Z,1.80
2017-07-21T13:52:55.185Z,2.00
2017-07-21T13:55:24.965Z,1.90
2017-07-21T13:57:57.304Z,2.10
2017-07-21T14:00:23.917Z,1.70
2017-07-21T14:02:57.218Z,1.80
2017-07-21T14:05:23.798Z,2.00
2017-07-21T14:07:50.448Z,1.70
2017-07-21T14:10:25.417Z,1.80
2017-07-21T14:12:52.109Z,2.00
2017-07-21T14:15:18.682Z,1.83
2017-07-21T14:17:45.270Z,1.50
2017-07-21T14:20:11.895Z,2.10
2017-07-21T14:22:38.538Z,1.80
2017-07-21T14:25:05.166Z,3.00
2017-07-21T14:27:31.753Z,1.70
2017-07-21T14:29:58.384Z,1.70
2017-07-21T14:32:24.959Z,1.90
2017-07-21T14:34:51.550Z,2.07
2017-07-21T14:37:18.131Z,2.10
2017-07-21T14:39:44.717Z,2.20
2017-07-21T14:42:11.303Z,1.90
2017-07-21T14:44:38.471Z,1.83
2017-07-21T14:47:05.129Z,1.90
2017-07-21T14:49:31.743Z,2.03
2017-07-21T14:51:58.326Z,1.90
2017-07-21T14:54:24.945Z,2.10
2017-07-21T14:56:51.518Z,2.07
2017-07-21T14:59:18.097Z,1.90
2017-07-21T15:01:44.678Z,2.20
2017-07-21T15:04:11.277Z,1.90
2017-07-21T15:06:37.895Z,2.30
2017-07-21T15:09:04.494Z,4.93
2017-07-21T15:11:31.066Z,1.90
2017-07-21T15:13:57.641Z,1.80
2017-07-21T15:16:24.300Z,2.20
2017-07-21T15:18:56.783Z,1.83
2017-07-21T15:21:23.357Z,1.77
2017-07-21T15:23:49.934Z,1.90
2017-07-21T15:26:16.606Z,1.77
2017-07-21T15:28:43.233Z,2.17
2017-07-21T15:31:09.894Z,2.20
2017-07-21T15:33:36.505Z,2.27
2017-07-21T15:36:03.078Z,2.20
2017-07-21T15:38:29.669Z,2.03
2017-07-21T15:40:56.255Z,1.80
2017-07-21T15:43:22.833Z,2.00
2017-07-21T15:45:49.423Z,2.07
2017-07-21T15:48:16.002Z,2.00
2017-07-21T15:50:42.762Z,1.80
2017-07-21T15:53:09.501Z,2.10
2017-07-21T15:55:36.204Z,1.90
2017-07-21T15:58:02.790Z,2.00
2017-07-21T16:00:29.381Z,1.80
2017-07-21T16:02:55.963Z,2.13
2017-07-21T16:05:22.551Z,2.00
2017-07-21T16:07:49.168Z,1.77
2017-07-21T16:10:18.898Z,2.07
2017-07-21T16:12:45.641Z,2.10
2017-07-21T16:15:12.320Z,1.90
2017-07-21T16:17:39.178Z,2.00
2017-07-21T16:20:05.765Z,1.93
2017-07-21T16:22:32.360Z,1.80
2017-07-21T16:24:58.948Z,1.93
2017-07-21T16:27:25.558Z,2.00
2017-07-21T16:29:52.181Z,2.00
2017-07-21T16:32:18.758Z,1.80
2017-07-21T16:34:45.360Z,2.20
2017-07-21T16:37:12.059Z,1.70
2017-07-21T16:39:39.580Z,1.93
2017-07-21T16:42:06.201Z,1.97
2017-07-21T16:44:32.764Z,1.90
2017-07-21T16:46:59.378Z,2.00
2017-07-21T16:49:26.773Z,1.80
2017-07-21T16:51:53.349Z,1.70
2017-07-21T16:54:19.925Z,1.90
2017-07-21T16:56:46.514Z,2.10
2017-07-21T16:59:13.126Z,1.90
2017-07-21T17:01:39.823Z,1.97
2017-07-21T17:04:06.481Z,1.83
2017-07-21T17:06:33.054Z,2.20
2017-07-21T17:08:59.635Z,1.67
2017-07-21T17:11:26.239Z,2.10
2017-07-21T17:13:52.818Z,2.00
2017-07-21T17:16:19.402Z,2.10
2017-07-21T17:18:45.980Z,2.70
2017-07-21T17:21:12.662Z,2.73
2017-07-21T17:23:39.341Z,2.20
2017-07-21T17:26:05.955Z,2.03
2017-07-21T17:28:32.565Z,3.57
2017-07-21T17:30:59.140Z,2.37
2017-07-21T17:33:25.730Z,2.60
2017-07-21T17:35:52.313Z,2.20
2017-07-21T17:38:19.020Z,2.07
2017-07-21T17:40:45.613Z,2.07
2017-07-21T17:43:12.223Z,2.77
2017-07-21T17:45:38.834Z,2.20
2017-07-21T17:48:05.555Z,2.60
2017-07-21T17:50:32.968Z,2.30
2017-07-21T17:52:59.554Z,2.53
2017-07-21T17:55:26.128Z,2.50
2017-07-21T17:57:52.722Z,2.50
2017-07-21T18:00:19.335Z,2.30
2017-07-21T18:02:45.897Z,2.30
2017-07-21T18:05:12.523Z,2.50
2017-07-21T18:07:39.184Z,2.67
2017-07-21T18:10:06.858Z,2.43
2017-07-21T18:12:33.470Z,2.40
2017-07-21T18:15:00.070Z,2.67
2017-07-21T18:17:26.832Z,4.90
2017-07-21T18:19:53.431Z,4.17
2017-07-21T18:22:19.993Z,2.50
2017-07-21T18:24:48.256Z,2.37
2017-07-21T18:27:14.880Z,2.50
2017-07-21T18:29:45.527Z,2.27
2017-07-21T18:32:12.705Z,2.40
2017-07-21T18:34:39.311Z,2.40
2017-07-21T18:37:05.972Z,2.53
2017-07-21T18:39:32.565Z,2.40
2017-07-21T18:41:59.217Z,2.50
2017-07-21T18:44:25.850Z,2.33
2017-07-21T18:46:52.440Z,2.63
2017-07-21T18:49:19.022Z,2.30
2017-07-21T18:51:45.622Z,2.43
2017-07-21T18:54:12.231Z,2.10
2017-07-21T18:56:39.332Z,2.17
2017-07-21T18:59:06.016Z,2.27
2017-07-21T19:01:32.637Z,2.60
2017-07-21T19:03:59.213Z,2.33
2017-07-21T19:06:25.851Z,2.33
2017-07-21T19:08:52.427Z,2.80
2017-07-21T19:11:19.001Z,2.40
2017-07-21T19:13:45.602Z,2.97
2017-07-21T19:16:12.200Z,2.90
2017-07-21T19:18:38.906Z,2.37
2017-07-21T19:21:05.555Z,2.30
2017-07-21T19:23:32.374Z,4.17
2017-07-21T19:25:58.966Z,3.30
2017-07-21T19:28:25.616Z,3.23
2017-07-21T19:30:52.194Z,2.73
2017-07-21T19:33:18.770Z,3.00
2017-07-21T19:35:45.395Z,3.50
2017-07-21T19:38:11.991Z,2.80
2017-07-21T19:40:38.625Z,2.93
2017-07-21T19:43:05.354Z,2.60
2017-07-21T19:45:31.909Z,3.17
2017-07-21T19:47:58.509Z,2.80
2017-07-21T19:50:25.081Z,2.80
2017-07-21T19:52:51.745Z,2.90
2017-07-21T19:55:21.270Z,2.90
2017-07-21T19:57:47.854Z,2.70
2017-07-21T20:00:21.487Z,3.10
2017-07-21T20:02:55.107Z,2.93
2017-07-21T20:05:32.424Z,3.10
2017-07-21T20:08:00.767Z,2.87
2017-07-21T20:10:30.556Z,3.50
2017-07-21T20:13:01.049Z,5.20
2017-07-21T20:15:27.685Z,3.50
2017-07-21T20:17:59.990Z,2.83
2017-07-21T20:20:33.158Z,3.43
2017-07-21T20:23:02.695Z,3.80
2017-07-21T20:25:29.269Z,3.40
2017-07-21T20:27:55.869Z,3.97
2017-07-21T20:30:22.456Z,3.90
2017-07-21T20:32:49.037Z,5.50
2017-07-21T20:35:15.632Z,4.47
2017-07-21T20:37:42.216Z,4.27
2017-07-21T20:40:14.794Z,3.97
2017-07-21T20:42:41.399Z,3.80
2017-07-21T20:45:08.310Z,3.90
2017-07-21T20:47:34.967Z,3.70
2017-07-21T20:50:04.987Z,3.63
2017-07-21T20:52:35.506Z,3.80
2017-07-21T20:55:05.201Z,4.50
2017-07-21T20:57:35.644Z,4.43
2017-07-21T21:00:02.266Z,4.33
2017-07-21T21:02:28.879Z,4.10
2017-07-21T21:04:55.497Z,3.97
2017-07-21T21:07:25.593Z,3.63
2017-07-21T21:09:52.186Z,3.30
2017-07-21T21:12:25.183Z,3.40
2017-07-21T21:14:57.598Z,3.50
2017-07-21T21:17:24.205Z,3.67
2017-07-21T21:19:50.785Z,3.60
2017-07-21T21:22:17.361Z,3.97
2017-07-21T21:24:43.965Z,3.73
2017-07-21T21:27:10.569Z,3.47
2017-07-21T21:29:37.871Z,3.70
2017-07-21T21:32:05.148Z,3.63
2017-07-21T21:34:31.764Z,3.87
2017-07-21T21:36:58.379Z,3.50
2017-07-21T21:39:25.130Z,3.47
2017-07-21T21:41:51.705Z,3.60
2017-07-21T21:44:18.285Z,3.50
2017-07-21T21:46:44.926Z,3.00
2017-07-21T21:49:11.595Z,3.90
2017-07-21T21:51:38.243Z,4.00
2017-07-21T21:54:04.942Z,4.50
2017-07-21T21:56:31.644Z,4.13
2017-07-21T21:58:58.249Z,4.50
2017-07-21T22:01:24.841Z,4.13
2017-07-21T22:03:51.417Z,4.90
2017-07-21T22:06:17.999Z,5.13
2017-07-21T22:08:44.699Z,5.50
2017-07-21T22:11:11.341Z,6.70
2017-07-21T22:13:38.746Z,6.60
2017-07-21T22:16:06.081Z,7.20
2017-07-21T22:18:32.669Z,7.93
2017-07-21T22:20:59.253Z,6.73
2017-07-21T22:23:25.836Z,6.13
2017-07-21T22:25:52.434Z,6.13
2017-07-21T22:28:19.824Z,6.30
2017-07-21T22:30:46.406Z,6.53
2017-07-21T22:33:13.069Z,6.30
2017-07-21T22:35:40.252Z,9.83
2017-07-21T22:38:07.420Z,12.10
2017-07-21T22:40:34.135Z,12.07
2017-07-21T22:43:00.741Z,10.80
2017-07-21T22:45:27.345Z,7.27
2017-07-21T22:47:53.962Z,6.47
2017-07-21T22:50:20.554Z,7.30
2017-07-21T22:52:47.207Z,7.33
2017-07-21T22:55:13.936Z,6.90
2017-07-21T22:57:40.756Z,5.70
2017-07-21T23:00:07.645Z,4.53
2017-07-21T23:02:34.265Z,4.70
2017-07-21T23:05:01.873Z,4.60
2017-07-21T23:07:28.444Z,4.67
2017-07-21T23:09:55.033Z,4.43
2017-07-21T23:12:21.607Z,4.73
2017-07-21T23:14:48.238Z,4.20
2017-07-21T23:17:14.814Z,4.50
2017-07-21T23:19:41.426Z,4.40
2017-07-21T23:22:08.306Z,4.00
2017-07-21T23:24:35.082Z,4.13
2017-07-21T23:27:01.715Z,4.00
2017-07-21T23:29:28.278Z,4.17
2017-07-21T23:31:54.860Z,4.40
2017-07-21T23:34:21.434Z,4.20
2017-07-21T23:36:48.032Z,4.77
2017-07-21T23:39:14.650Z,4.00
2017-07-21T23:41:41.249Z,3.80
2017-07-21T23:44:08.469Z,3.77
2017-07-21T23:46:35.650Z,4.20
2017-07-21T23:49:02.269Z,4.23
2017-07-21T23:51:28.862Z,4.30
2017-07-21T23:53:55.441Z,3.97
2017-07-21T23:56:22.025Z,4.23
2017-07-21T23:58:48.643Z,4.67
